createdAt,value
2023-01-06T00:01:21.469Z,5.10
2023-01-06T00:03:51.947Z,4.40
2023-01-06T00:06:23.060Z,5.88
2023-01-06T00:08:52.016Z,5.30
2023-01-06T00:11:21.205Z,7.05
2023-01-06T00:13:51.300Z,5.18
2023-01-06T00:16:21.385Z,5.43
2023-01-06T00:18:50.575Z,5.50
2023-01-06T00:21:19.586Z,4.30
2023-01-06T00:23:48.665Z,6.53
2023-01-06T00:26:17.631Z,5.93
2023-01-06T00:28:48.389Z,6.43
2023-01-06T00:31:18.991Z,7.60
2023-01-06T00:33:48.054Z,5.88
2023-01-06T00:36:17.282Z,6.32
2023-01-06T00:38:46.220Z,6.78
2023-01-06T00:41:33.302Z,6.32
2023-01-06T00:44:03.130Z,5.65
2023-01-06T00:46:34.508Z,5.40
2023-01-06T00:49:05.782Z,5.72
2023-01-06T00:51:36.769Z,4.82
2023-01-06T00:54:07.094Z,4.80
2023-01-06T00:56:37.732Z,4.40
2023-01-06T00:59:07.046Z,5.03
2023-01-06T01:01:37.847Z,5.35
2023-01-06T01:04:08.148Z,5.30
2023-01-06T01:06:37.702Z,3.40
2023-01-06T01:09:07.895Z,5.03
2023-01-06T01:11:54.322Z,5.05
2023-01-06T01:14:23.568Z,5.88
2023-01-06T01:16:53.790Z,5.40
2023-01-06T01:19:25.525Z,5.70
2023-01-06T01:21:54.656Z,5.63
2023-01-06T01:24:24.155Z,4.90
2023-01-06T01:26:53.241Z,5.57
2023-01-06T01:29:22.309Z,5.93
2023-01-06T01:31:51.786Z,5.15
2023-01-06T01:34:22.619Z,5.30
2023-01-06T01:36:53.261Z,5.90
2023-01-06T01:39:25.415Z,5.30
2023-01-06T01:41:54.913Z,6.00
2023-01-06T01:44:59.375Z,4.95
2023-01-06T01:47:42.966Z,5.90
2023-01-06T01:50:23.796Z,5.68
2023-01-06T01:52:56.603Z,8.20
2023-01-06T01:55:26.792Z,5.50
2023-01-06T01:57:59.313Z,5.68
2023-01-06T02:00:28.770Z,5.65
2023-01-06T02:02:58.070Z,5.93
2023-01-06T02:05:29.290Z,6.47
2023-01-06T02:07:58.717Z,5.50
2023-01-06T02:10:27.953Z,5.72
2023-01-06T02:12:59.679Z,6.40
2023-01-06T02:15:33.701Z,7.25
2023-01-06T02:18:35.304Z,5.72
2023-01-06T02:21:23.781Z,5.20
2023-01-06T02:24:32.691Z,6.38
2023-01-06T02:27:40.237Z,5.20
2023-01-06T02:30:47.211Z,6.43
2023-01-06T02:33:25.342Z,5.72
2023-01-06T02:36:15.504Z,6.30
2023-01-06T02:41:30.695Z,7.55
2023-01-06T02:44:03.516Z,5.25
2023-01-06T02:46:44.406Z,5.68
2023-01-06T02:49:20.076Z,5.43
2023-01-06T02:51:56.863Z,4.80
2023-01-06T02:54:31.001Z,7.05
2023-01-06T02:57:07.116Z,5.38
2023-01-06T02:59:38.649Z,5.35
2023-01-06T03:02:09.495Z,4.78
2023-01-06T03:04:41.343Z,4.20
2023-01-06T03:07:11.136Z,3.90
2023-01-06T03:09:41.221Z,3.92
2023-01-06T03:12:17.606Z,3.63
2023-01-06T03:14:49.092Z,3.75
2023-01-06T03:17:18.266Z,4.68
2023-01-06T03:19:48.490Z,4.50
2023-01-06T03:22:19.100Z,4.25
2023-01-06T03:24:48.427Z,4.33
2023-01-06T03:27:19.497Z,3.13
2023-01-06T03:29:48.804Z,4.07
2023-01-06T03:32:22.324Z,4.10
2023-01-06T03:35:11.527Z,3.47
2023-01-06T03:37:48.568Z,4.07
2023-01-06T03:40:26.094Z,4.00
2023-01-06T03:43:14.171Z,4.43
2023-01-06T03:45:54.742Z,5.05
2023-01-06T03:48:39.255Z,4.65
2023-01-06T03:51:14.519Z,4.32
2023-01-06T03:53:48.105Z,4.55
2023-01-06T03:56:20.438Z,5.40
2023-01-06T03:58:53.014Z,5.25
2023-01-06T04:01:25.016Z,5.10
2023-01-06T04:03:54.597Z,5.50
2023-01-06T04:06:27.493Z,4.97
2023-01-06T04:08:56.532Z,6.10
2023-01-06T04:11:48.627Z,5.63
2023-01-06T04:14:18.126Z,5.30
2023-01-06T04:16:47.322Z,5.63
2023-01-06T04:19:16.493Z,5.28
2023-01-06T04:21:47.029Z,5.10
2023-01-06T04:24:16.331Z,5.32
2023-01-06T04:26:45.412Z,5.22
2023-01-06T04:29:14.718Z,5.10
2023-01-06T04:31:43.487Z,5.50
2023-01-06T04:34:12.808Z,5.15
2023-01-06T04:36:42.305Z,5.05
2023-01-06T04:39:12.894Z,5.28
2023-01-06T04:41:42.039Z,5.55
2023-01-06T04:44:11.090Z,5.80
2023-01-06T04:46:39.717Z,6.40
2023-01-06T04:49:08.879Z,5.10
2023-01-06T04:51:37.838Z,5.80
2023-01-06T04:54:07.352Z,5.25
2023-01-06T04:56:37.959Z,5.88
2023-01-06T04:59:07.003Z,10.55
2023-01-06T05:01:36.394Z,5.85
2023-01-06T05:04:06.329Z,5.82
2023-01-06T05:06:35.730Z,7.80
2023-01-06T05:09:04.917Z,6.17
2023-01-06T05:11:34.328Z,6.53
2023-01-06T05:14:05.137Z,6.13
2023-01-06T05:16:35.669Z,6.10
2023-01-06T05:19:04.748Z,6.40
2023-01-06T05:21:33.748Z,7.80
2023-01-06T05:24:02.962Z,6.80
2023-01-06T05:26:32.048Z,8.90
2023-01-06T05:29:01.089Z,8.32
2023-01-06T05:31:31.208Z,6.95
2023-01-06T05:34:00.284Z,6.32
2023-01-06T05:36:29.457Z,6.00
2023-01-06T05:38:58.609Z,6.35
2023-01-06T05:41:27.637Z,6.75
2023-01-06T05:43:56.493Z,6.45
2023-01-06T05:46:25.547Z,7.35
2023-01-06T05:48:55.942Z,5.82
2023-01-06T05:51:25.087Z,9.13
2023-01-06T05:53:54.082Z,5.97
2023-01-06T05:56:24.262Z,6.60
2023-01-06T05:58:54.128Z,8.82
2023-01-06T06:03:55.451Z,6.75
2023-01-06T06:06:26.273Z,6.40
2023-01-06T06:08:55.585Z,5.60
2023-01-06T06:11:24.602Z,6.57
2023-01-06T06:13:55.020Z,6.22
2023-01-06T06:16:25.772Z,6.20
2023-01-06T06:18:57.653Z,5.97
2023-01-06T06:21:28.226Z,6.78
2023-01-06T06:23:58.689Z,6.90
2023-01-06T06:26:28.014Z,6.82
2023-01-06T06:28:56.884Z,6.65
2023-01-06T06:31:27.369Z,6.18
2023-01-06T06:33:59.398Z,7.45
2023-01-06T06:36:28.721Z,6.22
2023-01-06T06:38:58.430Z,9.02
2023-01-06T06:41:27.632Z,9.30
2023-01-06T06:43:56.535Z,6.82
2023-01-06T06:46:25.533Z,6.60
2023-01-06T06:48:54.553Z,7.20
2023-01-06T06:51:25.547Z,6.90
2023-01-06T06:53:54.603Z,7.55
2023-01-06T06:56:23.645Z,7.07
2023-01-06T06:58:52.337Z,7.00
2023-01-06T07:01:22.307Z,7.60
2023-01-06T07:03:51.498Z,7.43
2023-01-06T07:06:23.173Z,10.05
2023-01-06T07:08:53.643Z,7.93
2023-01-06T07:11:22.977Z,6.82
2023-01-06T07:13:51.540Z,9.65
2023-01-06T07:16:23.290Z,7.57
2023-01-06T07:18:52.465Z,7.63
2023-01-06T07:21:21.477Z,7.47
2023-01-06T07:23:50.644Z,7.22
2023-01-06T07:26:21.102Z,8.00
2023-01-06T07:28:49.710Z,8.70
2023-01-06T07:31:18.724Z,7.28
2023-01-06T07:33:47.725Z,8.35
2023-01-06T07:36:16.690Z,7.30
2023-01-06T07:38:45.735Z,6.97
2023-01-06T07:41:14.686Z,7.15
2023-01-06T07:43:44.806Z,8.43
2023-01-06T07:46:13.888Z,7.00
2023-01-06T07:48:42.940Z,7.65
2023-01-06T07:51:12.013Z,7.70
2023-01-06T07:53:41.110Z,7.07
2023-01-06T07:56:10.043Z,6.95
2023-01-06T07:58:38.689Z,6.22
2023-01-06T08:01:10.002Z,6.68
2023-01-06T08:03:39.088Z,6.72
2023-01-06T08:06:10.061Z,6.50
2023-01-06T08:08:39.691Z,6.63
2023-01-06T08:11:11.528Z,6.47
2023-01-06T08:13:40.518Z,6.78
2023-01-06T08:16:12.348Z,5.55
2023-01-06T08:18:41.717Z,7.35
2023-01-06T08:21:12.553Z,5.77
2023-01-06T08:23:41.653Z,6.05
2023-01-06T08:26:13.598Z,6.28
2023-01-06T08:28:42.379Z,5.65
2023-01-06T08:31:14.522Z,6.03
2023-01-06T08:33:44.152Z,9.25
2023-01-06T08:36:15.101Z,5.95
2023-01-06T08:38:44.410Z,5.72
2023-01-06T08:41:13.723Z,5.82
2023-01-06T08:43:45.588Z,6.15
2023-01-06T08:46:17.873Z,6.30
2023-01-06T08:48:47.199Z,5.97
2023-01-06T08:51:19.166Z,6.90
2023-01-06T08:53:48.822Z,5.15
2023-01-06T08:56:19.089Z,6.65
2023-01-06T08:58:52.690Z,7.55
2023-01-06T09:01:25.083Z,7.10
2023-01-06T09:03:54.311Z,6.10
2023-01-06T09:06:23.853Z,6.28
2023-01-06T09:08:53.738Z,7.00
2023-01-06T09:11:23.043Z,7.25
2023-01-06T09:13:52.254Z,5.97
2023-01-06T09:16:24.170Z,6.25
2023-01-06T09:18:53.507Z,7.28
2023-01-06T09:23:53.101Z,6.27
2023-01-06T09:26:22.336Z,6.57
2023-01-06T09:28:51.456Z,6.68
2023-01-06T09:31:20.544Z,11.82
2023-01-06T09:33:51.145Z,6.20
2023-01-06T09:36:20.198Z,9.30
2023-01-06T09:38:49.160Z,7.85
2023-01-06T09:42:02.222Z,8.48
2023-01-06T09:44:33.226Z,6.47
2023-01-06T09:47:03.560Z,8.75
2023-01-06T09:49:37.504Z,6.50
2023-01-06T09:52:11.520Z,6.43
2023-01-06T09:54:44.715Z,6.63
2023-01-06T09:57:17.233Z,6.75
2023-01-06T09:59:50.126Z,6.93
2023-01-06T10:02:23.231Z,7.00
2023-01-06T10:04:53.401Z,6.53
2023-01-06T10:07:28.888Z,7.90
2023-01-06T10:10:04.336Z,8.35
2023-01-06T10:12:47.653Z,6.65
2023-01-06T10:15:20.887Z,8.25
2023-01-06T10:18:02.630Z,7.47
2023-01-06T10:21:03.828Z,6.55
2023-01-06T10:23:42.136Z,8.82
2023-01-06T10:26:14.503Z,8.73
2023-01-06T10:28:44.422Z,9.15
2023-01-06T10:33:45.710Z,7.60
2023-01-06T10:36:18.531Z,10.00
2023-01-06T10:38:49.358Z,10.63
2023-01-06T10:41:24.408Z,10.00
2023-01-06T10:43:53.316Z,10.27
2023-01-06T10:46:22.590Z,11.45
2023-01-06T10:48:52.293Z,9.13
2023-01-06T10:51:38.491Z,13.25
2023-01-06T10:54:10.480Z,11.82
2023-01-06T10:56:40.448Z,11.65
2023-01-06T10:59:11.309Z,14.27
2023-01-06T11:01:50.549Z,12.70
2023-01-06T11:04:20.061Z,14.75
2023-01-06T11:06:53.664Z,10.50
2023-01-06T11:09:32.083Z,9.40
2023-01-06T11:12:02.818Z,9.52
2023-01-06T11:14:33.444Z,9.57
2023-01-06T11:17:04.084Z,10.10
2023-01-06T11:19:40.211Z,9.88
2023-01-06T11:22:35.315Z,10.60
2023-01-06T11:25:29.615Z,9.52
2023-01-06T11:28:20.654Z,8.55
2023-01-06T11:30:53.114Z,8.98
2023-01-06T11:33:25.355Z,11.00
2023-01-06T11:35:54.628Z,10.88
2023-01-06T11:38:25.656Z,9.60
2023-01-06T11:40:55.398Z,9.68
2023-01-06T11:45:57.639Z,9.60
2023-01-06T11:48:29.833Z,9.55
2023-01-06T11:51:00.494Z,9.95
2023-01-06T11:53:31.478Z,10.57
2023-01-06T11:56:02.696Z,9.85
2023-01-06T11:58:41.394Z,9.60
2023-01-06T12:01:15.275Z,11.90
2023-01-06T12:03:46.119Z,12.73
2023-01-06T12:06:27.541Z,11.85
2023-01-06T12:09:02.565Z,9.10
2023-01-06T12:11:40.906Z,10.50
2023-01-06T12:14:27.448Z,9.52
2023-01-06T12:17:05.089Z,10.90
2023-01-06T12:19:39.250Z,16.58
2023-01-06T12:22:19.265Z,10.75
2023-01-06T12:24:50.581Z,13.35
2023-01-06T12:27:25.537Z,10.48
2023-01-06T12:29:56.929Z,15.15
2023-01-06T12:32:29.199Z,11.48
2023-01-06T12:35:01.436Z,11.95
2023-01-06T12:37:34.248Z,14.07
2023-01-06T12:40:10.607Z,12.02
2023-01-06T12:42:45.038Z,12.82
2023-01-06T12:45:17.036Z,11.52
2023-01-06T12:47:48.798Z,10.98
2023-01-06T12:50:22.450Z,12.30
2023-01-06T12:52:53.373Z,12.63
2023-01-06T12:55:30.604Z,11.82
2023-01-06T12:58:02.524Z,13.07
2023-01-06T13:00:42.737Z,17.35
2023-01-06T13:03:47.157Z,10.88
2023-01-06T13:06:26.059Z,12.68
2023-01-06T13:09:16.173Z,12.85
2023-01-06T13:12:02.410Z,14.57
2023-01-06T13:14:37.246Z,12.98
2023-01-06T13:17:09.846Z,15.75
2023-01-06T13:19:44.427Z,14.00
2023-01-06T13:22:17.463Z,15.45
2023-01-06T13:24:54.679Z,14.57
2023-01-06T13:27:46.173Z,12.32
2023-01-06T13:30:28.026Z,13.98
2023-01-06T13:33:09.537Z,9.68
2023-01-06T13:35:51.972Z,12.38
2023-01-06T13:38:44.574Z,17.15
2023-01-06T13:41:16.692Z,12.93
2023-01-06T13:43:50.400Z,14.18
2023-01-06T13:46:20.631Z,19.70
2023-01-06T13:51:25.238Z,16.48
2023-01-06T13:53:54.904Z,13.38
2023-01-06T13:56:26.153Z,11.45
2023-01-06T13:59:20.504Z,18.58
2023-01-06T14:01:50.067Z,15.43
2023-01-06T14:04:47.360Z,14.38
2023-01-06T14:07:16.811Z,16.25
2023-01-06T14:09:50.559Z,17.55
2023-01-06T14:12:22.664Z,15.00
2023-01-06T14:15:01.734Z,15.43
2023-01-06T14:17:33.313Z,21.55
2023-01-06T14:20:02.386Z,17.27
2023-01-06T14:22:32.115Z,19.23
2023-01-06T14:25:03.266Z,14.55
2023-01-06T14:28:07.184Z,18.77
2023-01-06T14:30:38.324Z,15.73
2023-01-06T14:33:26.818Z,15.38
2023-01-06T14:36:03.446Z,14.07
2023-01-06T14:38:36.592Z,21.42
2023-01-06T14:41:08.025Z,13.02
2023-01-06T14:43:44.042Z,20.52
2023-01-06T14:46:20.536Z,19.85
2023-01-06T14:48:55.018Z,19.70
2023-01-06T14:51:24.281Z,21.10
2023-01-06T14:54:01.094Z,18.67
2023-01-06T14:56:31.755Z,14.43
2023-01-06T14:59:10.760Z,37.83
2023-01-06T15:01:43.766Z,28.63
2023-01-06T15:04:25.007Z,49.30
2023-01-06T15:07:02.926Z,19.10
2023-01-06T15:09:32.045Z,29.40
2023-01-06T15:12:01.024Z,25.77
2023-01-06T15:14:32.137Z,31.00
2023-01-06T15:17:04.679Z,26.00
2023-01-06T15:19:33.741Z,20.33
2023-01-06T15:22:08.388Z,19.67
2023-01-06T15:24:39.618Z,19.80
2023-01-06T15:27:10.145Z,20.15
2023-01-06T15:29:39.176Z,24.02
2023-01-06T15:32:14.346Z,21.10
2023-01-06T15:34:45.830Z,20.52
2023-01-06T15:37:20.003Z,22.52
2023-01-06T15:39:49.320Z,21.67
2023-01-06T15:42:22.239Z,21.80
2023-01-06T15:44:58.262Z,24.40
2023-01-06T15:47:34.444Z,21.90
2023-01-06T15:50:04.512Z,15.93
2023-01-06T15:52:35.304Z,21.98
2023-01-06T15:55:06.842Z,23.73
2023-01-06T15:57:38.357Z,19.90
2023-01-06T16:00:10.130Z,22.23
2023-01-06T16:02:40.646Z,23.67
2023-01-06T16:05:40.734Z,24.50
2023-01-06T16:08:18.379Z,28.02
2023-01-06T16:10:47.926Z,26.85
2023-01-06T16:13:25.715Z,29.03
2023-01-06T16:15:58.429Z,31.85
2023-01-06T16:18:31.190Z,29.35
2023-01-06T16:21:01.651Z,32.40
2023-01-06T16:23:34.141Z,29.45
2023-01-06T16:26:05.947Z,28.35
2023-01-06T16:28:34.851Z,23.70
2023-01-06T16:31:09.413Z,26.50
2023-01-06T16:33:45.887Z,27.77
2023-01-06T16:36:16.804Z,31.70
2023-01-06T16:38:46.175Z,22.33
2023-01-06T16:41:17.983Z,20.20
2023-01-06T16:43:47.401Z,29.25
2023-01-06T16:46:20.868Z,25.02
2023-01-06T16:48:52.426Z,25.50
2023-01-06T16:51:21.765Z,29.35
2023-01-06T16:53:51.043Z,29.10
2023-01-06T16:56:22.911Z,31.38
2023-01-06T16:58:52.117Z,32.10
2023-01-06T17:01:22.835Z,28.95
2023-01-06T17:03:57.160Z,26.67
2023-01-06T17:06:28.373Z,25.58
2023-01-06T17:09:00.122Z,24.35
2023-01-06T17:11:31.741Z,24.35
2023-01-06T17:14:03.598Z,27.38
2023-01-06T17:16:33.866Z,27.92
2023-01-06T17:19:10.417Z,26.40
2023-01-06T17:21:40.547Z,31.25
2023-01-06T17:24:13.696Z,27.83
2023-01-06T17:26:43.003Z,25.65
2023-01-06T17:29:15.038Z,36.35
2023-01-06T17:31:46.041Z,30.73
2023-01-06T17:34:21.353Z,25.38
2023-01-06T17:36:52.193Z,37.70
2023-01-06T17:39:23.513Z,44.88
2023-01-06T17:42:00.889Z,35.35
2023-01-06T17:44:35.965Z,39.63
2023-01-06T17:47:10.422Z,36.83
2023-01-06T17:49:40.697Z,33.25
2023-01-06T17:52:16.916Z,31.55
2023-01-06T17:55:13.452Z,45.85
2023-01-06T17:57:46.265Z,42.80
2023-01-06T18:00:25.277Z,40.03
2023-01-06T18:02:56.979Z,40.22
2023-01-06T18:05:55.809Z,40.03
2023-01-06T18:08:25.706Z,39.65
2023-01-06T18:10:56.854Z,40.47
2023-01-06T18:13:29.707Z,40.70
2023-01-06T18:15:59.614Z,34.55
2023-01-06T18:18:31.182Z,45.78
2023-01-06T18:21:05.185Z,39.08
2023-01-06T18:23:35.473Z,56.50
2023-01-06T18:26:31.228Z,46.00
2023-01-06T18:29:03.074Z,47.53
2023-01-06T18:31:35.520Z,47.60
2023-01-06T18:34:33.894Z,34.63
2023-01-06T18:37:04.690Z,54.60
2023-01-06T18:39:41.185Z,51.60
2023-01-06T18:42:29.235Z,54.53
2023-01-06T18:45:19.611Z,48.75
2023-01-06T18:47:52.671Z,50.25
2023-01-06T18:50:29.076Z,48.03
2023-01-06T18:53:00.042Z,53.72
2023-01-06T18:55:35.524Z,36.83
2023-01-06T18:58:14.677Z,54.78
2023-01-06T19:00:46.656Z,54.47
2023-01-06T19:03:38.668Z,45.38
2023-01-06T19:06:40.801Z,51.42
2023-01-06T19:09:18.852Z,61.67
2023-01-06T19:11:48.599Z,46.65
2023-01-06T19:14:19.595Z,58.35
2023-01-06T19:16:52.153Z,55.83
2023-01-06T19:19:25.047Z,48.65
2023-01-06T19:21:58.646Z,44.38
2023-01-06T19:24:42.343Z,43.78
2023-01-06T19:27:36.470Z,57.78
2023-01-06T19:30:47.922Z,57.33
2023-01-06T19:33:38.865Z,60.22
2023-01-06T19:36:29.491Z,40.15
2023-01-06T19:38:59.047Z,45.10
2023-01-06T19:41:32.002Z,44.47
2023-01-06T19:44:07.740Z,39.10
2023-01-06T19:46:38.777Z,52.35
2023-01-06T19:49:14.357Z,57.35
2023-01-06T19:51:43.674Z,54.72
2023-01-06T19:54:25.759Z,51.28
2023-01-06T19:56:57.498Z,48.20
2023-01-06T19:59:29.466Z,49.88
2023-01-06T20:02:01.185Z,50.70
2023-01-06T20:04:31.448Z,51.15
2023-01-06T20:07:02.502Z,52.03
2023-01-06T20:09:33.656Z,46.47
2023-01-06T20:12:05.003Z,49.08
2023-01-06T20:14:34.179Z,63.53
2023-01-06T20:17:03.492Z,55.47
2023-01-06T20:19:32.284Z,45.17
2023-01-06T20:22:01.314Z,51.05
2023-01-06T20:24:30.701Z,41.07
2023-01-06T20:26:59.748Z,38.08
2023-01-06T20:29:30.474Z,49.30
2023-01-06T20:32:00.045Z,48.10
2023-01-06T20:34:28.847Z,28.90
2023-01-06T20:36:59.472Z,37.90
2023-01-06T20:39:29.782Z,28.90
2023-01-06T20:42:00.465Z,41.63
2023-01-06T20:44:31.142Z,48.92
2023-01-06T20:47:00.343Z,40.42
2023-01-06T20:49:29.048Z,49.15
2023-01-06T20:51:58.056Z,46.35
2023-01-06T20:54:27.232Z,28.17
2023-01-06T20:56:56.268Z,42.20
2023-01-06T20:59:25.305Z,35.03
2023-01-06T21:01:55.716Z,44.38
2023-01-06T21:04:24.926Z,52.60
2023-01-06T21:06:54.092Z,29.50
2023-01-06T21:09:28.224Z,37.10
2023-01-06T21:11:57.445Z,30.98
2023-01-06T21:14:26.420Z,43.92
2023-01-06T21:16:56.655Z,28.85
2023-01-06T21:19:25.713Z,42.40
2023-01-06T21:21:54.785Z,35.20
2023-01-06T21:24:23.825Z,55.80
2023-01-06T21:26:53.150Z,46.95
2023-01-06T21:29:22.647Z,31.37
2023-01-06T21:31:51.440Z,22.88
2023-01-06T21:34:21.967Z,38.50
2023-01-06T21:36:51.027Z,43.08
2023-01-06T21:39:20.061Z,28.17
2023-01-06T21:42:06.400Z,41.53
2023-01-06T21:44:35.627Z,42.08
2023-01-06T21:47:05.094Z,48.45
2023-01-06T21:49:35.360Z,30.05
2023-01-06T21:52:04.754Z,44.88
2023-01-06T21:54:36.640Z,40.17
2023-01-06T21:57:05.744Z,29.02
2023-01-06T21:59:34.854Z,48.30
2023-01-06T22:02:04.116Z,53.88
2023-01-06T22:04:34.604Z,49.20
2023-01-06T22:07:06.060Z,57.38
2023-01-06T22:09:35.306Z,37.83
2023-01-06T22:12:05.569Z,55.40
2023-01-06T22:17:03.602Z,44.97
2023-01-06T22:19:32.500Z,52.13
2023-01-06T22:22:03.160Z,51.38
2023-01-06T22:24:33.494Z,27.13
2023-01-06T22:27:02.756Z,49.10
2023-01-06T22:29:31.944Z,53.72
2023-01-06T22:32:03.535Z,49.80
2023-01-06T22:34:32.371Z,49.88
2023-01-06T22:37:02.823Z,49.70
2023-01-06T22:39:31.875Z,51.90
2023-01-06T22:42:01.318Z,57.60
2023-01-06T22:44:30.308Z,45.20
2023-01-06T22:46:59.240Z,49.28
2023-01-06T22:49:27.922Z,48.45
2023-01-06T22:51:56.779Z,56.78
2023-01-06T22:54:27.375Z,51.13
2023-01-06T22:56:56.370Z,57.97
2023-01-06T22:59:25.301Z,51.47
2023-01-06T23:01:54.038Z,43.70
2023-01-06T23:04:23.109Z,44.42
2023-01-06T23:06:52.262Z,42.45
2023-01-06T23:09:21.274Z,50.90
2023-01-06T23:11:51.764Z,43.40
2023-01-06T23:14:20.935Z,42.50
2023-01-06T23:16:49.850Z,37.78
2023-01-06T23:19:18.947Z,39.42
2023-01-06T23:21:48.002Z,37.00
2023-01-06T23:24:17.113Z,42.90
2023-01-06T23:26:48.523Z,39.78
2023-01-06T23:29:19.079Z,42.92
2023-01-06T23:34:17.810Z,44.85
2023-01-06T23:39:16.997Z,47.03
2023-01-06T23:41:46.106Z,48.20
2023-01-06T23:44:16.640Z,48.83
2023-01-06T23:49:17.566Z,50.33
2023-01-06T23:51:46.786Z,50.10
2023-01-06T23:54:16.329Z,45.75
2023-01-06T23:56:45.477Z,51.58
2023-01-06T23:59:14.621Z,46.22
